Terminal Aerodrome Forecast
Issued by NWS Jackson, KY

Home | Current Version | Previous Version | Text Only | Print | Product List | Glossary On
Versions: 1 2 3 4 5 6 7 8 9 10 11 12 13 14 15 16 17 18 19 20 21 22 23 24 25 26 27 28
904
FTUS43 KJKL 101746
TAFLOZ
TAF
KLOZ 101746Z 1018/1118 30007G15KT P6SM -SN SCT018 OVC050
     FM101900 30007G15KT P6SM -SN SCT023 OVC050
     FM102000 30008KT 6SM -SN SCT029 OVC050
     FM102100 30008KT 6SM -SN OVC035
     FM102300 VRB05KT P6SM VCSH SCT060 OVC250
     FM110000 VRB05KT P6SM SCT070=

USA.gov is the U.S. government's official web portal to all federal, state and local government web resources and services.